Time;durP1;ratioP1;P1;durP2;ratioP2;P2;SDS_P1;SDS_P2;PMS_P1;PMS_P2;Temp;Humidity;BMP_temperature;BMP_pressure;BME280_temperature;BME280_humidity;BME280_pressure;Samples;Min_cycle;Max_cycle;Signal;HPM_P1;HPM_P2
2023/04/03 00:01:27;;;;;;;6.88;3.97;;;;;;;12.56;62.12;96870.47;5059950;28;20069;-48
2023/04/03 00:03:56;;;;;;;5.95;3.60;;;;;;;13.22;58.99;96876.47;5029605;28;20069;-45
2023/04/03 00:06:26;;;;;;;6.60;3.53;;;;;;;13.32;59.39;96868.47;5025371;28;20645;-51
2023/04/03 00:08:54;;;;;;;8.00;3.92;;;;;;;13.10;61.32;96870.56;5023281;28;20073;-48
2023/04/03 00:11:23;;;;;;;7.40;3.63;;;;;;;13.09;60.05;96878.66;5057606;28;20105;-48
2023/04/03 00:13:51;;;;;;;4.80;2.85;;;;;;;13.07;60.20;96871.69;5022962;28;20083;-47
2023/04/03 00:16:20;;;;;;;6.65;3.95;;;;;;;13.75;59.61;96873.81;5065841;28;20084;-48
2023/04/03 00:18:48;;;;;;;5.75;4.05;;;;;;;13.69;57.89;96873.59;5018814;28;20069;-46
2023/04/03 00:21:16;;;;;;;6.45;3.55;;;;;;;13.28;58.67;96866.16;5028218;28;20091;-45
2023/04/03 00:23:46;;;;;;;5.32;3.90;;;;;;;13.35;58.25;96869.03;5023835;28;20081;-45
2023/04/03 00:26:15;;;;;;;5.73;3.30;;;;;;;13.10;58.28;96865.25;5026226;28;20077;-47
2023/04/03 00:28:43;;;;;;;5.18;3.25;;;;;;;13.11;59.85;96872.22;5024140;28;20899;-45
2023/04/03 00:31:11;;;;;;;3.92;2.78;;;;;;;12.56;62.33;96878.41;5023367;28;20488;-44
2023/04/03 00:33:40;;;;;;;6.30;4.20;;;;;;;13.57;59.78;96870.34;5026997;28;20084;-47
2023/04/03 00:36:10;;;;;;;5.43;3.03;;;;;;;12.85;59.28;96877.41;5024083;28;20093;-49
2023/04/03 00:38:40;;;;;;;7.55;3.88;;;;;;;13.09;60.01;96868.06;5025620;28;20105;-43
2023/04/03 00:41:10;;;;;;;6.60;3.65;;;;;;;13.44;58.90;96868.09;5024468;28;20069;-44
2023/04/03 00:43:38;;;;;;;5.47;3.53;;;;;;;13.57;57.85;96867.72;5022133;28;20457;-47
2023/04/03 00:46:07;;;;;;;7.35;3.50;;;;;;;13.67;56.74;96863.16;5022732;28;20077;-51
2023/04/03 00:48:37;;;;;;;5.45;2.90;;;;;;;13.71;55.41;96869.81;5024187;28;20500;-50
2023/04/03 00:51:07;;;;;;;5.75;3.70;;;;;;;14.08;53.80;96865.25;5028694;28;20080;-45
2023/04/03 00:53:40;;;;;;;5.38;3.50;;;;;;;13.98;54.17;96868.00;5025094;28;20106;-45
2023/04/03 00:56:13;;;;;;;5.20;3.47;;;;;;;13.75;54.60;96860.56;5019241;28;20084;-47
2023/04/03 00:58:45;;;;;;;4.18;3.03;;;;;;;13.72;53.35;96862.69;5020767;28;20081;-45
2023/04/03 01:01:17;;;;;;;4.60;3.20;;;;;;;13.69;52.81;96862.97;5024680;28;20084;-44
2023/04/03 01:03:46;;;;;;;6.13;3.25;;;;;;;13.69;52.75;96858.50;5024965;28;20081;-50
2023/04/03 01:06:17;;;;;;;5.25;3.08;;;;;;;13.23;54.03;96863.06;5028984;28;20084;-46
2023/04/03 01:08:46;;;;;;;3.47;2.33;;;;;;;13.03;53.83;96866.84;5024048;28;20060;-48
2023/04/03 01:11:16;;;;;;;5.88;3.47;;;;;;;13.73;52.25;96859.06;5055435;28;20046;-47
2023/04/03 01:13:45;;;;;;;5.60;3.07;;;;;;;13.29;52.31;96864.31;5024267;28;20081;-46
2023/04/03 01:16:13;;;;;;;4.10;3.38;;;;;;;13.56;53.06;96863.41;5024626;28;20088;-41
2023/04/03 01:18:41;;;;;;;4.57;3.38;;;;;;;13.67;52.64;96857.84;5024786;28;20085;-46
2023/04/03 01:21:57;;;;;;;5.88;3.20;;;;;;;13.47;51.95;96873.09;5038797;28;20580;-45
2023/04/03 01:24:33;;;;;;;3.50;2.53;;;;;;;13.80;51.06;96868.06;5022973;28;20089;-44
2023/04/03 01:27:05;;;;;;;5.28;3.42;;;;;;;13.88;51.11;96870.75;5024601;28;20081;-46
2023/04/03 01:29:33;;;;;;;5.88;2.97;;;;;;;13.78;50.70;96865.53;5025945;28;20088;-45
2023/04/03 01:32:04;;;;;;;5.45;2.83;;;;;;;13.97;50.64;96863.69;5026752;28;20084;-48
2023/04/03 01:34:32;;;;;;;4.32;2.80;;;;;;;14.06;50.27;96870.72;5024225;28;20081;-44
2023/04/03 01:37:01;;;;;;;4.88;2.90;;;;;;;13.10;51.51;96869.72;5025575;28;20087;-51
2023/04/03 01:39:29;;;;;;;4.28;2.78;;;;;;;13.52;52.01;96875.25;5027601;28;20138;-45
2023/04/03 01:41:59;;;;;;;4.93;2.97;;;;;;;13.67;50.67;96870.28;5028078;28;20088;-43
2023/04/03 01:44:27;;;;;;;4.35;2.78;;;;;;;13.73;50.98;96873.16;5026487;28;20085;-44
2023/04/03 01:46:55;;;;;;;4.30;2.60;;;;;;;13.93;50.94;96875.59;5024422;28;20095;-46
2023/04/03 01:49:25;;;;;;;5.18;3.03;;;;;;;13.76;50.17;96874.63;5034825;28;20084;-43
2023/04/03 01:51:53;;;;;;;4.05;2.83;;;;;;;13.98;50.23;96868.84;5032914;28;20104;-50
2023/04/03 01:54:22;;;;;;;3.83;3.00;;;;;;;14.37;50.04;96876.34;5028171;28;20084;-51
2023/04/03 01:56:50;;;;;;;4.55;2.50;;;;;;;14.17;49.84;96875.75;5032150;28;20095;-47
2023/04/03 01:59:19;;;;;;;3.40;2.20;;;;;;;13.62;50.38;96873.38;5029098;28;20088;-46
2023/04/03 02:01:47;;;;;;;5.68;2.67;;;;;;;14.35;49.26;96872.19;5029136;28;20091;-46
2023/04/03 02:04:15;;;;;;;4.13;2.78;;;;;;;14.38;48.68;96867.44;5031406;28;20545;-48
2023/04/03 02:06:45;;;;;;;3.80;2.70;;;;;;;13.72;50.16;96865.31;5030969;28;20096;-45
2023/04/03 02:09:13;;;;;;;3.63;2.27;;;;;;;13.61;49.96;96876.19;5027348;28;20092;-45
2023/04/03 02:11:42;;;;;;;5.82;2.95;;;;;;;14.16;49.39;96873.25;5028855;28;20140;-52
2023/04/03 02:14:10;;;;;;;5.20;3.22;;;;;;;13.91;50.29;96869.63;5024431;28;20081;-45
2023/04/03 02:16:38;;;;;;;3.85;2.38;;;;;;;14.20;49.52;96870.13;5027229;28;20080;-46
2023/04/03 02:19:07;;;;;;;3.28;2.30;;;;;;;13.35;50.76;96871.66;5033768;28;20100;-44
2023/04/03 02:21:35;;;;;;;3.30;2.47;;;;;;;14.03;50.03;96868.38;5026475;28;20081;-45
2023/04/03 02:24:06;;;;;;;2.65;1.95;;;;;;;13.48;50.55;96872.09;5026978;28;20092;-45
2023/04/03 02:26:34;;;;;;;;;;;;;;;13.32;50.75;96874.63;5030663;28;20081;-43
2023/04/03 02:29:02;;;;;;;4.22;2.28;;;;;;;13.54;50.33;96866.19;5031920;28;19971;-44
2023/04/03 02:31:30;;;;;;;4.10;2.50;;;;;;;13.11;52.14;96869.59;5020507;28;20092;-45
2023/04/03 02:33:59;;;;;;;4.28;2.67;;;;;;;13.07;52.65;96862.91;5024703;28;20470;-47
2023/04/03 02:36:27;;;;;;;4.13;2.45;;;;;;;13.58;51.65;96865.88;5027565;28;20081;-42
2023/04/03 02:38:58;;;;;;;;;;;;;;;13.65;50.99;96869.59;5020707;28;20084;-46
2023/04/03 02:41:33;;;;;;;4.50;2.78;;;;;;;14.10;50.36;96861.44;5019881;28;20357;-44
2023/04/03 02:44:01;;;;;;;3.17;2.50;;;;;;;14.16;50.11;96855.53;5021580;28;20100;-47
2023/04/03 02:46:30;;;;;;;3.55;2.20;;;;;;;13.99;49.93;96867.84;5023929;28;20084;-47
2023/04/03 02:48:58;;;;;;;3.50;2.22;;;;;;;13.73;50.42;96862.53;5020835;28;20103;-45
2023/04/03 02:51:26;;;;;;;2.58;1.55;;;;;;;13.40;50.47;96864.09;5024610;28;20088;-44
2023/04/03 02:53:55;;;;;;;2.90;1.63;;;;;;;13.18;51.59;96869.78;5027330;28;20092;-45
2023/04/03 02:56:23;;;;;;;4.00;2.63;;;;;;;13.52;51.25;96867.31;5018404;28;20485;-44
2023/04/03 02:58:52;;;;;;;2.67;1.92;;;;;;;12.86;53.19;96870.28;5024114;28;20091;-44
2023/04/03 03:01:21;;;;;;;3.83;2.13;;;;;;;13.16;53.11;96863.81;5016468;28;20088;-44
2023/04/03 03:03:49;;;;;;;6.78;2.63;;;;;;;13.60;51.83;96864.75;5023017;28;20084;-43
2023/04/03 03:06:18;;;;;;;4.13;2.70;;;;;;;13.21;52.20;96875.66;5027384;28;20096;-47
2023/04/03 03:08:46;;;;;;;4.63;2.58;;;;;;;13.12;52.69;96873.88;5027076;28;20481;-43
2023/04/03 03:11:15;;;;;;;2.85;1.77;;;;;;;12.99;52.21;96879.53;5025751;28;20085;-46
2023/04/03 03:13:43;;;;;;;4.10;2.53;;;;;;;12.66;53.04;96883.63;5025918;28;20096;-45
2023/04/03 03:16:13;;;;;;;3.08;2.05;;;;;;;12.62;54.20;96873.50;5021887;28;20085;-47
2023/04/03 03:18:41;;;;;;;3.58;1.73;;;;;;;12.68;54.05;96875.56;5021431;28;20081;-43
2023/04/03 03:21:10;;;;;;;2.70;1.58;;;;;;;12.66;54.25;96880.16;5023656;28;20081;-43
2023/04/03 03:23:38;;;;;;;3.92;2.08;;;;;;;13.34;52.24;96867.34;5026565;28;20076;-46
2023/04/03 03:26:09;;;;;;;4.35;2.63;;;;;;;13.33;52.70;96862.19;5027346;28;20081;-43
2023/04/03 03:28:37;;;;;;;;;;;;;;;12.81;53.52;96874.22;5024906;28;20083;-45
2023/04/03 03:31:06;;;;;;;3.65;2.67;;;;;;;13.23;52.65;96875.47;5026127;28;19948;-45
2023/04/03 03:33:36;;;;;;;4.15;2.47;;;;;;;13.29;52.71;96865.16;5023845;28;20091;-45
2023/04/03 03:36:05;;;;;;;6.00;2.42;;;;;;;13.32;52.79;96871.09;5027613;28;20536;-48
2023/04/03 03:38:33;;;;;;;3.70;2.70;;;;;;;13.37;52.91;96871.50;5056488;28;20079;-45
2023/04/03 03:41:02;;;;;;;2.22;1.83;;;;;;;13.26;53.01;96865.44;5023265;28;20073;-45
2023/04/03 03:43:30;;;;;;;3.00;2.35;;;;;;;13.38;51.94;96873.16;5027336;28;20085;-49
2023/04/03 03:45:58;;;;;;;6.93;2.50;;;;;;;13.01;52.40;96877.59;5024875;28;20073;-44
2023/04/03 03:48:27;;;;;;;4.13;2.67;;;;;;;13.27;52.54;96868.94;5022938;28;21949;-46
2023/04/03 03:50:56;;;;;;;5.40;2.38;;;;;;;13.41;51.58;96876.34;5024022;28;20092;-49
2023/04/03 03:53:25;;;;;;;5.67;2.80;;;;;;;13.83;51.36;96869.53;5023173;28;20100;-53
2023/04/03 03:55:53;;;;;;;5.18;2.60;;;;;;;13.79;50.25;96869.03;5020773;28;20084;-48
2023/04/03 03:58:22;;;;;;;4.88;3.05;;;;;;;13.61;50.50;96876.19;5026877;28;20482;-50
2023/04/03 04:00:50;;;;;;;3.60;1.98;;;;;;;14.08;49.71;96881.19;5027394;28;20083;-44
2023/04/03 04:03:18;;;;;;;3.58;2.60;;;;;;;14.32;49.00;96868.06;5023351;28;20077;-47
2023/04/03 04:05:47;;;;;;;4.20;2.72;;;;;;;13.98;49.75;96870.66;5024405;28;20069;-46
2023/04/03 04:08:17;;;;;;;5.10;3.20;;;;;;;13.58;50.55;96879.13;5024401;28;20103;-48
2023/04/03 04:10:45;;;;;;;4.73;2.70;;;;;;;13.91;49.54;96873.09;5027677;28;20084;-53
2023/04/03 04:13:13;;;;;;;3.67;2.60;;;;;;;14.31;49.29;96866.38;5021657;28;20080;-49
2023/04/03 04:15:41;;;;;;;2.85;2.08;;;;;;;14.09;48.97;96873.06;5024325;28;20080;-52
2023/04/03 04:18:10;;;;;;;4.60;2.85;;;;;;;14.21;48.70;96866.50;5012802;28;20097;-52
2023/04/03 04:20:38;;;;;;;5.20;2.70;;;;;;;14.22;49.07;96875.28;5014256;28;20092;-46
2023/04/03 04:23:06;;;;;;;4.63;2.30;;;;;;;14.13;48.58;96879.69;5024390;28;20064;-49
2023/04/03 04:25:36;;;;;;;5.43;2.80;;;;;;;13.96;49.40;96880.59;5036470;28;20096;-50
2023/04/03 04:28:05;;;;;;;4.18;2.20;;;;;;;14.01;49.00;96873.84;5038781;28;20091;-53
2023/04/03 04:30:34;;;;;;;2.72;1.80;;;;;;;13.71;49.21;96872.44;5031543;28;20127;-45
2023/04/03 04:33:02;;;;;;;3.10;2.20;;;;;;;13.81;49.56;96872.38;5041186;28;20542;-44
2023/04/03 04:35:30;;;;;;;5.00;2.58;;;;;;;14.15;48.84;96879.56;5033363;28;20119;-49
2023/04/03 04:37:59;;;;;;;6.43;3.03;;;;;;;14.28;48.85;96885.28;5030772;28;20096;-50
2023/04/03 04:40:28;;;;;;;3.90;2.80;;;;;;;14.17;48.78;96885.53;5036242;28;20077;-46
2023/04/03 04:42:57;;;;;;;6.07;3.30;;;;;;;14.12;48.93;96883.34;5035130;28;20088;-48
2023/04/03 04:45:26;;;;;;;4.83;2.80;;;;;;;13.95;48.99;96879.75;5036731;28;20088;-48
2023/04/03 04:47:56;;;;;;;5.22;3.03;;;;;;;13.80;49.08;96881.31;5028643;28;21054;-47
2023/04/03 04:50:24;;;;;;;6.28;2.92;;;;;;;13.98;49.15;96886.56;5036592;28;20085;-50
2023/04/03 04:52:52;;;;;;;5.53;3.50;;;;;;;14.18;48.88;96892.50;5032607;28;20116;-46
2023/04/03 04:55:21;;;;;;;3.88;2.35;;;;;;;13.52;49.79;96892.03;5038017;28;20107;-47
2023/04/03 04:57:49;;;;;;;3.70;2.33;;;;;;;13.70;49.53;96892.00;5032486;28;20089;-49
2023/04/03 05:00:20;;;;;;;4.07;2.53;;;;;;;13.54;49.79;96897.97;5027780;28;20559;-47
2023/04/03 05:02:48;;;;;;;4.78;3.35;;;;;;;13.91;49.40;96890.84;5037861;28;20091;-47
2023/04/03 05:05:17;;;;;;;2.28;1.48;;;;;;;13.61;49.54;96897.38;5035870;28;20088;-49
2023/04/03 05:07:45;;;;;;;4.55;2.67;;;;;;;13.66;49.77;96892.44;5034967;28;20091;-49
2023/04/03 05:10:14;;;;;;;4.47;2.50;;;;;;;13.96;49.24;96889.38;5028470;28;20089;-49
2023/04/03 05:12:42;;;;;;;2.70;1.73;;;;;;;13.50;49.50;96896.63;5039732;28;20091;-47
2023/04/03 05:15:11;;;;;;;3.72;2.33;;;;;;;13.62;49.76;96899.03;5031969;28;20089;-50
2023/04/03 05:17:40;;;;;;;6.50;3.35;;;;;;;13.98;49.33;96892.72;5039244;28;20092;-52
2023/04/03 05:20:10;;;;;;;4.03;1.88;;;;;;;13.84;49.64;96900.41;5037271;28;20099;-48
2023/04/03 05:22:38;;;;;;;4.57;2.85;;;;;;;13.99;49.40;96902.31;5035704;28;20541;-50
2023/04/03 05:25:07;;;;;;;7.07;3.05;;;;;;;14.20;49.17;96901.13;5037734;28;20080;-49
2023/04/03 05:27:36;;;;;;;9.45;2.33;;;;;;;14.15;49.00;96906.09;5032993;28;20504;-46
2023/04/03 05:30:05;;;;;;;5.35;3.25;;;;;;;14.35;48.70;96904.88;5039083;28;20084;-48
2023/04/03 05:32:34;;;;;;;5.18;2.92;;;;;;;14.36;48.25;96908.38;5032261;28;20092;-47
2023/04/03 05:35:04;;;;;;;5.38;3.03;;;;;;;14.28;48.76;96903.84;5040587;28;20485;-47
2023/04/03 05:37:32;;;;;;;5.65;3.22;;;;;;;14.57;48.34;96898.22;5040473;28;20096;-48
2023/04/03 05:40:01;;;;;;;7.55;3.60;;;;;;;14.63;47.95;96904.72;5041701;28;20088;-48
2023/04/03 05:42:29;;;;;;;5.43;3.15;;;;;;;14.15;48.77;96901.59;5066644;28;20084;-48
2023/04/03 05:44:58;;;;;;;6.55;3.28;;;;;;;14.71;47.37;96904.75;5030801;28;20068;-47
2023/04/03 05:47:26;;;;;;;7.47;3.70;;;;;;;14.59;47.72;96900.69;5031799;28;20067;-47
2023/04/03 05:49:55;;;;;;;8.63;3.58;;;;;;;14.77;47.56;96906.78;5043179;28;20148;-49
2023/04/03 05:52:27;;;;;;;2.70;2.15;;;;;;;14.62;47.49;96905.69;5028245;28;20088;-49
2023/04/03 05:54:56;;;;;;;5.18;3.40;;;;;;;15.00;47.08;96907.00;5025804;28;20084;-48
2023/04/03 05:57:25;;;;;;;5.63;3.45;;;;;;;14.98;46.96;96901.03;5035659;28;20084;-49
2023/04/03 05:59:53;;;;;;;6.28;3.05;;;;;;;14.80;46.84;96903.81;5040963;28;20084;-50
2023/04/03 06:02:23;;;;;;;6.78;3.35;;;;;;;14.58;46.71;96910.50;5034054;28;20080;-49
2023/04/03 06:04:52;;;;;;;6.10;3.50;;;;;;;14.81;46.94;96905.47;5039262;28;20076;-48
2023/04/03 06:07:22;;;;;;;4.95;2.88;;;;;;;14.02;47.15;96915.28;5036937;28;20092;-49
2023/04/03 06:09:52;;;;;;;5.32;3.47;;;;;;;13.69;48.07;96916.00;5038295;28;20073;-48
2023/04/03 06:12:21;;;;;;;4.03;2.80;;;;;;;13.55;48.82;96917.38;5030295;28;20152;-48
2023/04/03 06:14:50;;;;;;;7.72;4.03;;;;;;;14.32;48.04;96912.31;5033042;28;20073;-48
2023/04/03 06:17:18;;;;;;;3.28;2.35;;;;;;;13.93;48.80;96920.66;5037964;28;20528;-48
2023/04/03 06:19:47;;;;;;;5.53;3.33;;;;;;;14.27;47.80;96918.09;5036628;28;20073;-49
2023/04/03 06:22:16;;;;;;;6.30;3.67;;;;;;;14.40;47.74;96920.31;5069941;28;20075;-50
2023/04/03 06:24:44;;;;;;;4.03;2.78;;;;;;;13.87;48.41;96919.47;5032245;28;20077;-51
2023/04/03 06:27:14;;;;;;;6.40;3.88;;;;;;;14.11;47.69;96921.47;5034697;28;20070;-49
2023/04/03 06:29:43;;;;;;;3.05;2.67;;;;;;;13.98;48.49;96927.19;5033086;28;20069;-49
2023/04/03 06:32:11;;;;;;;6.97;3.83;;;;;;;14.05;47.84;96921.25;5039281;28;20075;-50
2023/04/03 06:34:39;;;;;;;4.85;3.08;;;;;;;13.83;49.06;96923.41;5042146;28;20139;-49
2023/04/03 06:37:08;;;;;;;6.22;3.13;;;;;;;14.47;47.02;96924.84;5030412;28;20072;-49
2023/04/03 06:39:36;;;;;;;3.90;2.63;;;;;;;14.40;46.58;96926.47;5036717;28;20068;-50
2023/04/03 06:42:04;;;;;;;5.47;3.25;;;;;;;14.21;48.69;96924.88;5030382;28;20080;-48
2023/04/03 06:44:34;;;;;;;6.22;4.03;;;;;;;14.07;48.28;96925.41;5034377;28;20092;-49
2023/04/03 06:47:03;;;;;;;4.82;3.08;;;;;;;13.95;47.93;96930.13;5033135;28;20084;-48
2023/04/03 06:49:31;;;;;;;7.07;3.35;;;;;;;14.20;47.79;96932.97;5037398;28;20081;-51
2023/04/03 06:52:00;;;;;;;5.10;3.92;;;;;;;14.34;47.99;96932.38;5034666;28;20111;-48
2023/04/03 06:54:30;;;;;;;8.50;3.70;;;;;;;14.25;47.38;96926.22;5031695;28;20065;-54
2023/04/03 06:56:58;;;;;;;4.55;2.95;;;;;;;13.56;48.96;96931.44;5040362;28;20437;-51
2023/04/03 06:59:27;;;;;;;10.55;4.70;;;;;;;14.11;48.75;96931.22;5035168;28;20081;-51
2023/04/03 07:01:58;;;;;;;5.30;3.85;;;;;;;13.67;48.10;96939.19;5040797;28;20076;-52
2023/04/03 07:04:27;;;;;;;6.25;4.43;;;;;;;14.37;47.26;96939.22;5034912;28;20708;-52
2023/04/03 07:06:55;;;;;;;6.72;3.95;;;;;;;14.79;47.12;96938.47;5033004;28;20077;-52
2023/04/03 07:09:23;;;;;;;6.47;4.07;;;;;;;14.25;47.13;96946.59;5033129;28;20516;-48
2023/04/03 07:11:52;;;;;;;7.35;4.47;;;;;;;14.46;47.78;96951.53;5033428;28;20072;-50
2023/04/03 07:14:21;;;;;;;7.43;4.80;;;;;;;14.58;47.72;96950.31;5035725;28;20101;-49
2023/04/03 07:16:49;;;;;;;10.35;4.07;;;;;;;14.88;46.78;96950.78;5035631;28;20100;-51
2023/04/03 07:19:19;;;;;;;6.18;3.88;;;;;;;14.71;47.86;96949.88;5033583;28;20422;-47
2023/04/03 07:21:48;;;;;;;4.93;3.00;;;;;;;13.40;48.08;96962.09;5038969;28;20449;-50
2023/04/03 07:24:16;;;;;;;6.03;4.00;;;;;;;14.06;48.08;96963.53;5034207;28;20354;-48
2023/04/03 07:26:45;;;;;;;7.78;3.97;;;;;;;13.51;48.85;96967.19;5029174;28;20084;-51
2023/04/03 07:29:13;;;;;;;6.32;3.75;;;;;;;13.87;49.14;96972.50;5038238;28;20076;-47
2023/04/03 07:31:42;;;;;;;6.63;4.03;;;;;;;14.19;48.12;96971.91;5031567;28;20073;-50
2023/04/03 07:34:10;;;;;;;6.78;4.68;;;;;;;13.77;48.23;96969.94;5040026;28;20103;-50
2023/04/03 07:36:40;;;;;;;6.47;4.35;;;;;;;14.05;48.46;96971.66;5032630;28;20088;-48
2023/04/03 07:39:08;;;;;;;9.98;5.97;;;;;;;13.64;48.92;96984.53;5033419;28;20076;-49
2023/04/03 07:41:37;;;;;;;6.68;3.38;;;;;;;13.14;49.15;96988.44;5033825;28;20077;-48
2023/04/03 07:44:05;;;;;;;8.00;3.53;;;;;;;14.10;49.37;96972.84;5030354;28;20103;-48
2023/04/03 07:46:34;;;;;;;7.22;4.63;;;;;;;13.17;50.37;96980.19;5029374;28;20498;-49
2023/04/03 07:49:02;;;;;;;11.45;4.78;;;;;;;13.64;49.65;96979.25;5031139;28;20061;-48
2023/04/03 07:51:31;;;;;;;9.65;4.88;;;;;;;13.42;50.24;96983.13;5031244;28;20085;-50
2023/04/03 07:54:00;;;;;;;8.18;4.60;;;;;;;14.31;48.39;96985.75;5031051;28;20087;-47
2023/04/03 07:56:29;;;;;;;7.57;4.27;;;;;;;14.90;47.82;96985.97;5028016;28;20073;-51
2023/04/03 07:58:57;;;;;;;11.48;4.68;;;;;;;14.21;47.64;96983.22;5038018;28;21030;-47
2023/04/03 08:01:26;;;;;;;5.60;3.50;;;;;;;14.13;47.68;96984.97;5028913;28;20079;-51
2023/04/03 08:03:54;;;;;;;9.20;4.45;;;;;;;14.25;49.01;96989.06;5026636;28;20096;-48
2023/04/03 08:06:23;;;;;;;6.95;3.28;;;;;;;14.22;47.98;96986.69;5036756;28;20076;-48
2023/04/03 08:09:11;;;;;;;6.90;4.03;;;;;;;13.67;50.10;96995.66;5037568;28;20079;-45
2023/04/03 08:11:39;;;;;;;8.15;4.40;;;;;;;14.06;49.05;96995.34;5027394;28;20080;-47
2023/04/03 08:14:10;;;;;;;7.90;4.10;;;;;;;14.94;47.67;96988.16;5036021;28;20069;-51
2023/04/03 08:16:39;;;;;;;6.47;3.88;;;;;;;14.27;47.14;96988.88;5029381;28;20468;-51
2023/04/03 08:19:07;;;;;;;9.57;4.57;;;;;;;14.05;47.63;96995.50;5033326;28;20076;-48
2023/04/03 08:21:46;;;;;;;6.60;4.32;;;;;;;14.05;47.81;96995.50;5033435;28;20500;-52
2023/04/03 08:24:16;;;;;;;4.72;2.90;;;;;;;13.86;48.35;96994.66;5035157;28;20547;-52
2023/04/03 08:26:44;;;;;;;6.73;3.60;;;;;;;14.46;47.22;96989.53;5031851;28;20085;-53
2023/04/03 08:29:13;;;;;;;8.10;4.65;;;;;;;13.73;48.08;96997.72;5031144;28;20092;-46
2023/04/03 08:31:41;;;;;;;5.78;3.85;;;;;;;14.66;46.11;96986.69;5032906;28;20092;-49
2023/04/03 08:34:09;;;;;;;6.22;3.80;;;;;;;15.42;45.02;96986.69;5023719;28;20073;-49
2023/04/03 08:36:38;;;;;;;7.70;4.43;;;;;;;15.44;45.61;96984.69;5033539;28;20575;-53
2023/04/03 08:39:06;;;;;;;9.77;6.00;;;;;;;15.52;45.12;96989.22;5022500;28;20076;-49
2023/04/03 08:41:39;;;;;;;5.68;3.85;;;;;;;15.65;44.96;96984.22;5027759;28;20085;-51
2023/04/03 08:44:16;;;;;;;8.48;4.20;;;;;;;15.01;46.24;96987.53;5028695;28;20092;-48
2023/04/03 08:46:56;;;;;;;6.18;3.85;;;;;;;15.46;44.98;96989.84;5041002;28;20088;-50
2023/04/03 08:49:28;;;;;;;6.55;3.90;;;;;;;15.61;45.14;96990.88;5037377;28;20076;-49
2023/04/03 08:51:57;;;;;;;5.10;3.60;;;;;;;15.74;44.23;96998.41;5040197;28;20077;-51
2023/04/03 08:54:29;;;;;;;4.53;3.05;;;;;;;15.23;44.83;96989.59;5035176;28;20100;-51
2023/04/03 08:57:03;;;;;;;7.28;3.95;;;;;;;14.80;44.44;96998.56;5032177;28;20080;-49
2023/04/03 08:59:34;;;;;;;3.97;2.92;;;;;;;15.79;44.08;96992.59;5040706;28;20083;-49
2023/04/03 09:02:22;;;;;;;3.53;2.67;;;;;;;14.69;44.16;96994.31;5035125;28;20114;-48
2023/04/03 09:04:51;;;;;;;6.60;3.50;;;;;;;15.19;43.84;96993.59;5038700;28;20104;-46
2023/04/03 09:07:23;;;;;;;4.57;2.53;;;;;;;15.39;42.65;96994.16;5032774;28;20096;-50
2023/04/03 09:09:52;;;;;;;8.00;2.95;;;;;;;15.38;42.72;96993.34;5042571;28;20084;-47
2023/04/03 09:12:26;;;;;;;6.65;4.00;;;;;;;15.85;42.30;97000.75;5035149;28;20084;-51
2023/04/03 09:15:01;;;;;;;6.45;2.85;;;;;;;14.81;42.09;96994.91;5032264;28;20515;-50
2023/04/03 09:17:38;;;;;;;3.83;2.60;;;;;;;15.54;41.37;96991.69;5037351;28;20112;-54
2023/04/03 09:20:15;;;;;;;3.83;2.00;;;;;;;15.80;42.45;96999.59;5038789;28;20077;-51
2023/04/03 09:22:48;;;;;;;6.00;3.10;;;;;;;15.61;41.73;96995.38;5035033;28;20145;-48
2023/04/03 09:25:22;;;;;;;5.18;2.70;;;;;;;15.99;41.21;96999.28;5036489;28;20092;-47
2023/04/03 09:27:52;;;;;;;;;;;;;;;15.18;42.35;96998.06;5036685;28;20555;-50
2023/04/03 09:30:23;;;;;;;3.60;2.67;;;;;;;15.23;42.05;96994.09;5039362;28;19963;-50
2023/04/03 09:32:53;;;;;;;7.13;3.08;;;;;;;15.33;41.47;96992.13;5039384;28;20112;-48
2023/04/03 09:35:24;;;;;;;4.47;2.80;;;;;;;15.34;42.23;96999.94;5035382;28;20080;-49
2023/04/03 09:38:20;;;;;;;3.28;2.20;;;;;;;14.71;42.02;96995.84;5026390;28;20081;-50
2023/04/03 09:40:50;;;;;;;3.10;1.88;;;;;;;14.86;42.54;96998.72;5032602;28;20085;-46
2023/04/03 09:43:29;;;;;;;6.32;3.15;;;;;;;15.13;42.45;96994.22;5030596;28;20081;-48
2023/04/03 09:46:18;;;;;;;3.35;2.00;;;;;;;14.61;41.70;96983.66;5035175;28;20080;-48
2023/04/03 09:48:52;;;;;;;4.53;2.15;;;;;;;14.84;41.70;96992.75;5030045;28;20088;-47
2023/04/03 09:51:36;;;;;;;2.70;2.28;;;;;;;14.72;41.78;96994.84;5030911;28;20084;-48
2023/04/03 09:54:27;;;;;;;4.97;2.13;;;;;;;14.67;42.16;96988.34;5034460;28;20143;-45
2023/04/03 09:56:56;;;;;;;5.07;2.17;;;;;;;14.20;41.34;96999.28;5030289;28;20084;-48
2023/04/03 09:59:26;;;;;;;2.38;1.77;;;;;;;14.29;41.16;97006.31;5037699;28;20547;-49
2023/04/03 10:02:01;;;;;;;4.97;2.70;;;;;;;15.09;40.50;96992.88;5035579;28;20092;-48
2023/04/03 10:04:39;;;;;;;3.33;1.83;;;;;;;14.42;40.59;97001.44;5037338;28;20093;-52
2023/04/03 10:07:30;;;;;;;3.05;1.90;;;;;;;15.06;40.58;96994.03;5031904;28;20087;-50
2023/04/03 10:09:59;;;;;;;4.40;2.20;;;;;;;13.77;40.86;97001.72;5035457;28;20121;-53
2023/04/03 10:12:27;;;;;;;5.13;2.20;;;;;;;13.89;40.75;96993.53;5035244;28;20449;-46
2023/04/03 10:14:58;;;;;;;4.63;2.42;;;;;;;13.76;40.42;96999.22;5033823;28;20651;-47
2023/04/03 10:17:35;;;;;;;3.08;1.98;;;;;;;13.98;40.94;96990.00;5030594;28;20092;-52
2023/04/03 10:20:11;;;;;;;5.80;2.17;;;;;;;13.44;40.54;97000.56;5031635;28;20069;-51
2023/04/03 10:22:54;;;;;;;3.00;1.95;;;;;;;13.74;40.28;97003.84;5039872;28;20092;-49
2023/04/03 10:25:32;;;;;;;2.15;1.35;;;;;;;14.24;39.97;96996.16;5035909;28;20080;-50
2023/04/03 10:28:02;;;;;;;3.03;1.85;;;;;;;14.31;40.16;96992.88;5039157;28;20442;-50
2023/04/03 10:30:37;;;;;;;;;;;;;;;13.76;38.98;96989.47;5041538;28;20477;-54
2023/04/03 10:33:29;;;;;;;2.78;1.95;;;;;;;14.49;38.24;96991.03;5031240;28;20411;-48
2023/04/03 10:36:09;;;;;;;4.82;1.70;;;;;;;14.90;38.29;96991.28;5035915;28;20445;-51
2023/04/03 10:38:44;;;;;;;3.03;1.75;;;;;;;14.41;38.53;96983.00;5036529;28;20077;-51
2023/04/03 10:41:19;;;;;;;3.50;1.77;;;;;;;13.96;38.91;96987.47;5029319;28;20077;-48
2023/04/03 10:43:55;;;;;;;3.33;1.40;;;;;;;14.30;38.45;96985.91;5036991;28;20072;-51
2023/04/03 10:46:29;;;;;;;4.07;1.95;;;;;;;13.38;38.45;97009.09;5030618;28;20563;-50
2023/04/03 10:49:11;;;;;;;4.63;1.80;;;;;;;13.91;38.15;97003.03;5035095;28;20506;-51
2023/04/03 10:51:43;;;;;;;4.00;1.48;;;;;;;14.40;36.99;96995.44;5033794;28;20111;-48
2023/04/03 10:54:14;;;;;;;2.88;1.63;;;;;;;14.37;36.71;96998.41;5031575;28;20100;-47
2023/04/03 10:56:43;;;;;;;1.77;1.10;;;;;;;14.09;35.74;96997.69;5034473;28;20453;-49
2023/04/03 10:59:24;;;;;;;2.97;1.35;;;;;;;14.31;35.59;96999.03;5036436;28;20081;-50
2023/04/03 11:01:57;;;;;;;2.28;1.35;;;;;;;14.58;35.50;96989.28;5029770;28;20524;-49
2023/04/03 11:04:28;;;;;;;1.73;1.05;;;;;;;14.32;34.75;96994.56;5037894;28;20069;-49
2023/04/03 11:07:00;;;;;;;3.50;1.15;;;;;;;15.12;34.28;96973.97;5029749;28;20074;-49
2023/04/03 11:09:31;;;;;;;2.78;1.10;;;;;;;15.50;34.82;96983.22;5029867;28;20103;-52
2023/04/03 11:12:03;;;;;;;2.85;1.20;;;;;;;15.85;34.38;96983.97;5031678;28;20523;-51
2023/04/03 11:14:34;;;;;;;1.98;1.13;;;;;;;15.04;34.72;96979.25;5035299;28;20080;-52
2023/04/03 11:17:08;;;;;;;1.85;0.93;;;;;;;15.37;34.16;96981.00;5040846;28;20084;-45
2023/04/03 11:19:40;;;;;;;2.45;1.30;;;;;;;14.96;33.10;96982.69;5037582;28;20520;-50
2023/04/03 11:22:13;;;;;;;2.85;1.40;;;;;;;15.80;33.16;96959.72;5037607;28;20713;-51
2023/04/03 11:24:44;;;;;;;2.88;1.20;;;;;;;16.31;33.19;96960.34;5037688;28;20689;-50
2023/04/03 11:27:18;;;;;;;6.40;1.50;;;;;;;15.48;33.42;96968.41;5028428;28;20077;-51
2023/04/03 11:29:47;;;;;;;2.05;1.25;;;;;;;15.89;32.97;96961.34;5037499;28;20076;-48
2023/04/03 11:32:36;;;;;;;2.70;1.73;;;;;;;16.44;32.67;96950.00;5029986;28;20077;-52
2023/04/03 11:35:07;;;;;;;3.25;1.10;;;;;;;15.97;33.13;96960.56;5036664;28;20700;-53
2023/04/03 11:37:36;;;;;;;3.58;1.30;;;;;;;16.11;33.83;96952.72;5036061;28;20460;-48
2023/04/03 11:40:08;;;;;;;3.63;1.52;;;;;;;17.08;32.51;96947.38;5040759;28;20091;-52
2023/04/03 11:42:38;;;;;;;3.30;1.30;;;;;;;16.46;32.72;96941.88;5038206;28;20079;-51
2023/04/03 11:45:32;;;;;;;2.58;1.02;;;;;;;16.66;31.86;96945.81;5041092;28;20076;-52
2023/04/03 11:48:04;;;;;;;2.45;1.38;;;;;;;15.89;32.28;96950.72;5023586;28;20074;-48
2023/04/03 11:50:51;;;;;;;2.25;1.20;;;;;;;15.44;32.18;96955.44;5036101;28;20077;-48